Terminal Aerodrome Forecast
Issued by NWS Duluth, MN

Home | Current Version | Previous Version | Text Only | Print | Product List | Glossary On
Versions: 1 2 3 4 5 6 7 8 9 10 11 12 13 14 15 16 17 18 19 20 21 22 23 24 25 26 27 28 29 30 31 32
000
FTUS43 KDLH 212354 AAA
TAFINL
TAF AMD
KINL 212354Z 2200/2224 00000KT 1 1/2SM BR BKN003 OVC013
     FM220900 06004KT P6SM BKN010
     FM221000 06004KT P6SM BKN008
     FM221200 06004KT P6SM BKN010
     FM221800 05005KT P6SM SCT015=

USA.gov is the U.S. government's official web portal to all federal, state and local government web resources and services.